Bango, Nevada Weather observations

Data are for 10 minute period ending at time listed.
 Day   Time    Ave.   Ave.  Ave.  Vector   Max.   Stn.    Total    Solar   Ave.  
  of    of     Air    Rel.  Wind   Wind    Wind   Baro.  Precip.   Rad.    Soil  
Year   Day     Temp.  Hum.  Speed  Dir.    Gust   Pres.                    Temp. 
2015   (PST)    F      %     mph   deg.    mph     mb.     in.     W/m2     F    
--------------------------------------------------------------------------------- 
  31    3:30   33.3    79    5.6   305      6.9   876.9    0.00       0     7.2  
  31    3:40   32.4    80    6.9   314      9.6   877.0    0.00       0     7.2  
  31    3:50   32.8    79    9.3   311     12.3   877.0    0.00       0     7.1  
  31    4:00   33.8    76   12.0   313     14.1   877.0    0.00       0     7.0  
  31    4:10   33.6    76   10.8   320     13.2   877.1    0.00       0     6.9  
  31    4:20   32.9    78   10.0   319     12.3   877.3    0.00       0     6.9  
  31    4:30   32.3    78    7.8   331     12.3   877.4    0.00       0     6.8  
  31    4:40   30.1    83    7.0   344      8.7   877.5    0.00       0     6.8  
  31    4:50   28.7    87    6.6   358      8.7   877.6    0.00       0     6.7  
  31    5:00   28.6    86    7.9     8     10.5   877.6    0.00       0     6.6  
  31    5:10   28.9    86    6.9   339      9.6   877.7    0.00       0     6.6  
  31    5:20   27.6    88    5.5   329      7.8   877.7    0.00       0     6.5  
  31    5:30   27.3    88    2.7   325      5.1   877.7    0.00       0     6.4  
  31    5:40   26.8    89    2.7   132      6.9   877.8    0.00       0     6.4  
  31    5:50   26.4    91    5.0   123      6.0   878.1    0.00       0     6.3  
  31    6:00   27.4    91    2.5    78      5.1   878.3    0.00       0     6.2  
  31    6:10   27.5    90    3.2   326      5.1   878.3    0.00       0     6.2  
  31    6:20   28.9    85    3.0   330      6.0   878.3    0.00       0     6.1  
  31    6:30   27.7    87    3.6   145      5.1   878.4    0.00       0     6.1  
  31    6:40   27.0    89    4.0   141      6.0   878.4    0.00       0     6.0  
  31    6:50   26.0    90    4.3   156      6.0   878.3    0.00       0     5.9  
  31    7:00   26.9    89    5.3   219      6.9   878.3    0.00       1     5.9  
  31    7:10   27.0    87    6.9   214      8.7   878.4    0.00       4     5.8  
  31    7:20   27.9    86    5.6   208      7.8   878.6    0.00      17     5.8  
  31    7:30   27.1    87    6.0   220      6.9   878.8    0.00      42     5.7  
  31    7:40   27.9    87    3.9   248      5.1   879.1    0.00      72     5.7  
  31    7:50   31.1    82    3.1   348      5.1   879.3    0.00     108     5.6  
  31    8:00   32.9    79    3.1    15      4.2   879.5    0.00     144     5.6  
  31    8:10   34.0    78    5.8   332     12.3   879.6    0.00     174     5.5  
  31    8:20   35.7    75    6.2   307     10.5   879.6    0.00     204     5.5  
  31    8:30   35.3    76    2.2   109      4.2   879.6    0.00     235     5.4  
  31    8:40   36.5    74    2.2    46      4.2   879.7    0.00     265     5.4  
  31    8:50   37.5    71    1.3   163      3.3   879.8    0.00     295     5.3  
  31    9:00   38.2    69    1.2   183      2.4   879.8    0.00     324     5.3  
  31    9:10   39.3    67    2.9   187      6.0   880.0    0.00     352     5.3  
  31    9:20   39.4    64    5.2   307      7.8   880.1    0.00     379     5.2  
  31    9:30   39.3    63    5.1   336      6.9   880.0    0.00     405     5.2  
  31    9:40   39.9    58    3.3   354      5.1   880.1    0.00     431     5.2  
  31    9:50   41.6    53    2.4    35      5.1   880.2    0.00     456     5.1  
  31   10:00   43.4    52    2.4   142      4.2   880.0    0.00     479     5.1  
  31   10:10   42.1    56    2.8   194      4.2   880.1    0.00     499     5.1  
  31   10:20   43.8    52    2.1   156      5.1   880.2    0.00     520     5.1  
  31   10:30   44.0    50    2.7   159      4.2   880.2    0.00     540     5.1  
  31   10:40   43.8    51    2.9   167      5.1   880.2    0.00     557     5.0  
  31   10:50   43.9    50    4.5   185      6.9   880.1    0.00     573     5.1  
  31   11:00   44.3    49    3.2   174      5.1   880.0    0.00     587     5.1  
  31   11:10   44.5    48    4.0   164      6.9   880.0    0.00     599     5.1  
  31   11:20   45.2    47    3.9   156      7.8   879.8    0.00     609     5.1  
  31   11:30   45.1    46    4.2   149      7.8   879.7    0.00     617     5.2  
  31   11:40   45.6    46    4.8   160      7.8   879.4    0.00     624     5.2  
  31   11:50   46.2    44    3.6   162      9.6   879.4    0.00     629     5.3  
  31   12:00   47.2    42    4.1   182      9.6   879.2    0.00     632     5.4  
  31   12:10   46.6    42    5.8   187      9.6   878.9    0.00     610     5.5  
  31   12:20   47.2    40    4.9   173      8.7   878.9    0.00     633     5.5  
  31   12:30   47.3    39    6.0   154     11.4   878.8    0.00     630     5.6  
  31   12:40   47.9    38    5.5   180     11.4   878.7    0.00     626     5.7  
  31   12:50   47.9    38    5.7   163      8.7   878.6    0.00     620     5.9  
  31   13:00   48.9    36    5.2   123      9.6   878.5    0.00     613     6.0  
  31   13:10   48.8    36    5.2   182     10.5   878.3    0.00     603     6.1  
  31   13:20   49.0    35    5.8   157     10.5   878.2    0.00     592     6.2  
  31   13:30   50.1    34    4.3   160      7.8   878.1    0.00     579     6.4  
  31   13:40   49.9    33    5.0   131      7.8   878.1    0.00     564     6.5  
  31   13:50   50.2    32    5.4   122      9.6   877.9    0.00     547     6.7  
  31   14:00   50.5    32    4.6   102      6.9   877.9    0.00     532     6.8  
  31   14:10   50.4    32    4.5   177      6.9   878.0    0.00     517     7.0  
  31   14:20   51.2    31    3.8   350      7.8   878.1    0.00     494     7.1  
  31   14:30   50.6    32    4.3    61      7.8   878.1    0.00     460     7.3  
  31   14:40   50.3    32    5.6    35      8.7   878.3    0.00     447     7.5  
  31   14:50   50.3    32    6.9    41     12.3   878.3    0.00     429     7.6  
  31   15:00   50.2    31    4.3    49      6.9   878.3    0.00     405     7.8  
  31   15:10   50.8    30    5.0    80      7.8   878.3    0.00     371     7.9  
  31   15:20   51.1    30    4.7    76      7.8   878.3    0.00     348     8.1  
  31   15:30   50.6    30    7.0    59     10.5   878.3    0.00     320     8.2  
  31   15:40   50.1    30    8.0    65     12.3   878.2    0.00     284     8.4  
  31   15:50   49.6    30    7.6    64     11.4   878.2    0.00     249     8.5  
  31   16:00   49.4    30    7.3    70     11.4   878.3    0.00     221     8.7  
  31   16:10   49.3    30    5.8    69      7.8   878.5    0.00     191     8.8  
  31   16:20   49.4    29    5.1    83      7.8   878.5    0.00     165     8.9  
  31   16:30   49.3    29    4.0    70      5.1   878.5    0.00     138     9.1  
  31   16:40   49.3    30    4.7   107      6.9   878.5    0.00      99     9.2  
  31   16:50   48.6    31    5.0   114      6.0   878.4    0.00      64     9.3  
  31   17:00   47.8    32    5.5   102      6.9   878.5    0.00      36     9.4  
  31   17:10   46.5    34    5.0    90      6.9   878.6    0.00      14     9.5  
  31   17:20   44.9    38    3.8    72      5.1   878.8    0.00       6     9.6  
  31   17:30   43.8    40    4.3    88      6.0   878.8    0.00       2     9.6  
  31   17:40   42.6    42    4.8   105      6.0   878.7    0.00       0     9.7  
  31   17:50   41.0    46    5.6    75      7.8   878.9    0.00       0     9.7  
  31   18:00   40.1    49    7.8    66      8.7   879.1    0.00       0     9.8  
  31   18:10   39.5    50    6.3    67      7.8   879.4    0.00       0     9.8  
  31   18:20   39.0    51    5.0    70      6.0   879.5    0.00       0     9.8  
  31   18:30   38.3    52    4.2   132      6.0   879.2    0.00       0     9.8  
  31   18:40   37.0    53    5.4   206      7.8   879.4    0.00       0     9.8  
  31   18:50   35.9    56    5.0   218      6.9   879.6    0.00       0     9.8  
  31   19:00   37.3    53    3.0   234      4.2   879.8    0.00       0     9.8  
  31   19:10   38.6    51    1.5   270      2.4   879.9    0.00       0     9.8  
  31   19:20   39.3    49    1.4   355      2.4   880.1    0.00       0     9.7  
  31   19:30   38.1    52    2.5   336      3.3   880.2    0.00       0     9.7  
  31   19:40   36.7    54    3.4   338      5.1   880.2    0.00       0     9.7  
  31   19:50   35.7    57    3.2   359      4.2   880.2    0.00       0     9.6  
  31   20:00   35.8    55    3.3   355      4.2   880.1    0.00       0     9.6  
  31   20:10   34.1    60    2.4   340      3.3   879.9    0.00       0     9.5  
  31   20:20   35.1    58    2.3    11      4.2   880.0    0.00       0     9.4  
  31   20:30   34.3    60    1.5   100      4.2   879.9    0.00       0     9.3  
  31   20:40   30.8    66    2.9   250      5.1   880.1    0.00       0     9.3  
  31   20:50   30.1    69    4.1   264      5.1   880.2    0.00       0     9.2  
  31   21:00   36.2    59    4.0   325      5.1   880.2    0.00       0     9.1  
  31   21:10   33.9    63    5.5   325      6.9   880.3    0.00       0     9.1  
  31   21:20   34.3    64    5.2   335      6.9   880.4    0.00       0     9.0  
  31   21:30   31.3    70    3.6   318      5.1   880.4    0.00       0     8.9  
  31   21:40   31.5    72    4.7   342      6.0   880.5    0.00       0     8.8  
  31   21:50   30.7    73    2.1   270      4.2   880.5    0.00       0     8.8  
  31   22:00   30.9    73    1.6   196      4.2   880.5    0.00       0     8.7  
  31   22:10   29.8    74    4.9   181      6.9   880.5    0.00       0     8.6  
  31   22:20   28.9    77    5.7   209      6.9   880.6    0.00       0     8.5  
  31   22:30   28.4    79    5.2   240      6.0   880.6    0.00       0     8.4  
  31   22:40   29.5    76    4.6   232      6.0   880.7    0.00       0     8.3  
  31   22:50   30.1    74    4.3   234      6.0   880.7    0.00       0     8.3  
  31   23:00   30.6    72    3.6   242      4.2   880.7    0.00       0     8.2  
  31   23:10   30.1    73    1.9   264      3.3   880.9    0.00       0     8.1  
  31   23:20   29.3    75    1.1   235      3.3   880.9    0.00       0     8.0  
  31   23:30   29.2    74    2.9   198      3.3   880.9    0.00       0     7.9  
  31   23:40   27.8    78    3.9   217      5.1   880.9    0.00       0     7.9  
  31   23:50   29.2    75    5.0   209      6.0   880.9    0.00       0     7.8  
  32    0:00   28.5    75    4.7   229      6.0   880.9    0.00       0     7.7  
  32    0:10   27.5    77    5.3   231      6.9   880.9    0.00       0     7.6  
  32    0:20   27.3    78    5.5   229      6.9   880.9    0.00       0     7.5  
  32    0:30   27.4    77    5.5   236      6.9   880.9    0.00       0     7.4  
  32    0:40   28.7    76    5.9   227      6.9   880.8    0.00       0     7.4  
  32    0:50   27.5    77    6.0   229      7.8   880.8    0.00       0     7.3  
  32    1:00   27.9    77    5.1   233      6.0   880.7    0.00       0     7.2  
  32    1:10   27.7    78    3.6   200      4.2   880.7    0.00       0     7.1  
  32    1:20   28.6    76    4.6   204      6.9   880.7    0.00       0     7.1  
  32    1:30   26.7    78    5.5   220      6.9   880.7    0.00       0     7.0  
  32    1:40   25.2    81    6.6   215      7.8   880.8    0.00       0     6.9  
  32    1:50   25.3    81    5.5   236      7.8   880.8    0.00       0     6.8  
  32    2:00   25.7    82    3.2   213      4.2   880.8    0.00       0     6.8  
  32    2:10   27.0    78    5.3   228      6.9   880.9    0.00       0     6.7  
  32    2:20   28.4    74    5.7   232      6.9   880.8    0.00       0     6.6  
  32    2:30   28.6    74    4.8   234      6.0   880.7    0.00       0     6.5  
  32    2:40   27.5    74    5.6   230      7.8   880.6    0.00       0     6.5  
  32    2:50   27.9    75    6.1   210      7.8   880.6    0.00       0     6.4  
  32    3:00   30.0    69    5.2   221      6.0   880.4    0.00       0     6.3  
  32    3:10   27.9    73    5.3   229      6.9   880.3    0.00       0     6.3  
  32    3:20   26.9    76    4.5   192      7.8   880.2    0.00       0     6.2  

Return to Garden Spring, Nevada graphs page.


Western Regional Climate Center,wrcc@dri.edu